Αναφορές METAR

 

LGKZ - Kozani (civ/Army, Greece
Distance from station: SW 41km
Updated: 05/12/2022 12:50

 Wind from varies
Wind: varies 4 km/h
Temperature: 9°C
Dew Point: 8°C
Humidity: 94%
Barometer: 1025 hPa
2022/12/05 10:50 LGKZ 051050Z AUTO VRB02KT //// // ////// 09/08 Q1025 RERA
LGTS - Thessaloniki/Mik, Greece
Distance from station: E 64km
Updated: 05/12/2022 12:50
Drizzle, Mostly cloudy
Drizzle, Mostly cloudy
 Wind from calm
Wind: Calm
Temperature: 12°C
Dew Point: 10°C
Humidity: 88%
Barometer: 1026 hPa
Summary: Drizzle
Clouds: Mostly cloudy
Visibility: 10 km
Cloud details: Few Clouds 305 m
Mostly cloudy 762 m
2022/12/05 10:50 LGTS 051050Z 00000KT 9999 DZ FEW010 BKN025 12/10 Q1026 NOSIG
 
LGIO - Ioannina, Greece
Distance from station: SW 149km
Updated: 05/12/2022 12:50
Overcast
Overcast
 Wind from varies
Wind: varies 4 km/h
Temperature: 12°C
Dew Point: 10°C
Humidity: 88%
Barometer: 1023 hPa
Clouds: Overcast
Visibility: 10 km
Cloud details: Few Clouds 122 m
Partly cloudy 914 m
Overcast 2134 m
2022/12/05 10:50 LGIO 051050Z VRB02KT 9999 FEW004 SCT030 OVC070 12/10 Q1023
LGBL - Nea Anchialos, Greece
Distance from station: SSE 154km
Updated: 05/12/2022 12:50
Light rain, Mostly cloudy
Light rain, Mostly cloudy
 Wind from calm
Wind: Calm
Temperature: 12°C
Dew Point: 12°C
Humidity: 100%
Barometer: 1025 hPa
Summary: Light rain
Clouds: Mostly cloudy
Visibility: 8 km
Cloud details: Partly cloudy 366 m
Mostly cloudy 914 m
Mostly cloudy 2134 m
2022/12/05 10:50 LGBL 051050Z 00000KT 8000 -RA SCT012 BKN030 BKN070 12/12 Q1025
 
LGSK - Skiathos Island, Greece
Distance from station: SE 185km
Updated: 03/12/2022 15:50
NOT Current
Partly cloudy
Partly cloudy
 Wind from N
Wind: N 9 km/h
Temperature: 15°C
Dew Point: 11°C
Humidity: 77%
Barometer: 1024 hPa
Clouds: Partly cloudy
Visibility: 10 km
Cloud details: Few Clouds 305 m
Partly cloudy 762 m
2022/12/03 13:50 LGSK 031350Z 01005KT 9999 FEW010 SCT025 15/11 Q1024
LGKV - Kavala/Chrisoupo, Greece
Distance from station: ENE 208km
Updated: 05/12/2022 12:50
Mostly cloudy
Mostly cloudy
 Wind from NNE
Wind: NNE 11 km/h
Temperature: 12°C
Dew Point: 4°C
Humidity: 58%
Barometer: 1026 hPa
Clouds: Mostly cloudy
Visibility: 10 km
Cloud details: Partly cloudy 914 m
Mostly cloudy 2438 m
2022/12/05 10:50 LGKV 051050Z 03006KT 9999 SCT030 BKN080 12/04 Q1026
 
LGPZ - Preveza/Aktion, Greece
Distance from station: SW 217km
Updated: 05/12/2022 12:50
Few Clouds
Few Clouds
 Wind from NE
Wind: NE 20 km/h
Temperature: 17°C
Dew Point: 12°C
Humidity: 73%
Barometer: 1022 hPa
Clouds: Few Clouds
Visibility: 10 km
Cloud details: Few Clouds 762 m
2022/12/05 10:50 LGPZ 051050Z 04011KT 9999 FEW025 17/12 Q1022
LGKR - Ioannis Kapodist, Greece
Distance from station: WSW 219km
Updated: 05/12/2022 12:50
Light rain, Mostly cloudy
Light rain, Mostly cloudy
 Wind from E
Wind: E 9 km/h
Temperature: 15°C
Dew Point: 13°C
Humidity: 88%
Barometer: 1021 hPa
Summary: Light rain
Clouds: Mostly cloudy
Visibility: 10 km
Cloud details: Few Clouds 305 m
Few Clouds 488 m
Mostly cloudy 1067 m
Mostly cloudy 2438 m
2022/12/05 10:50 LGKR 051050Z 09005KT 9999 -RA FEW010 FEW016TCU BKN035 BKN080 15/13 Q1021 TEMPO RA
 
LGSY - Skiros, Greece
Distance from station: SE 261km
Updated: 05/12/2022 12:50
Mostly cloudy
Mostly cloudy
 Wind from N
Wind: N 17 km/h
Temperature: 14°C
Dew Point: 7°C
Humidity: 63%
Barometer: 1025 hPa
Clouds: Mostly cloudy
Visibility: 10 km
Cloud details: Few Clouds 457 m
Mostly cloudy 762 m
2022/12/05 10:50 LGSY 051050Z 01009KT 9999 FEW015 BKN025 14/07 Q1025 RMK BKN080 BLU
LGLM - Limnos Island Ar, Greece
Distance from station: ESE 266km
Updated: 05/12/2022 12:50
Mostly cloudy
Mostly cloudy
 Wind from NE
Wind: NE 15 km/h
Temperature: 12°C
Dew Point: 8°C
Humidity: 77%
Barometer: 1026 hPa
Clouds: Mostly cloudy
Visibility: 10 km
Cloud details: Partly cloudy 244 m
Mostly cloudy 1067 m
2022/12/05 10:50 LGLM 051050Z 05008KT 9999 SCT008 BKN035 12/08 Q1026
 
LGRX - Araxos (civ/Afb), Greece
Distance from station: SSW 271km
Updated: 05/12/2022 12:50
Partly cloudy
Partly cloudy
 Wind from NE
Wind: NE 19 km/h
Temperature: 17°C
Dew Point: 12°C
Humidity: 73%
Barometer: 1023 hPa
Clouds: Partly cloudy
Visibility: 10 km
Cloud details: Few Clouds 762 m
Partly cloudy 1219 m
2022/12/05 10:50 LGRX 051050Z 05010KT 9999 FEW025 SCT040 17/12 Q1023
LGEL - Elefsis (hel-Afb, Greece
Distance from station: SSE 297km
Updated: 05/12/2022 12:50
Few Clouds
Few Clouds
 Wind from NW
Wind: NW 7 km/h
Temperature: 16°C
Dew Point: 8°C
Humidity: 59%
Barometer: 1024 hPa
Clouds: Few Clouds
Visibility: 10 km
Cloud details: Few Clouds 762 m
2022/12/05 10:50 LGEL 051050Z 31004KT 9999 FEW025 16/08 Q1024
 
LGAD - Andravida (civ/A, Greece
Distance from station: SSW 301km
Updated: 05/12/2022 12:50
Partly cloudy
Partly cloudy
 Wind from SSE
Wind: SSE 11 km/h
Temperature: 20°C
Dew Point: 13°C
Humidity: 64%
Barometer: 1022 hPa
Clouds: Partly cloudy
Visibility: 10 km
Cloud details: Few Clouds 762 m
Partly cloudy 2134 m
2022/12/05 10:50 LGAD 051050Z 16006KT 9999 FEW025 SCT070 20/13 Q1022
LGKF - Kefallinia, Greece
Distance from station: SSW 305km
Updated: 05/12/2022 12:50
Light rain, Mostly cloudy
Light rain, Mostly cloudy
 Wind from calm
Wind: Calm
Temperature: 15°C
Dew Point: 13°C
Humidity: 88%
Barometer: 1022 hPa
Summary: Light rain
Clouds: Mostly cloudy
Visibility: 8 km
Cloud details: Few Clouds 427 m
Few Clouds 549 m
Partly cloudy 610 m
Mostly cloudy 2134 m
2022/12/05 10:50 LGKF 051050Z 00000KT 8000 -RA FEW014 FEW018TCU SCT020 BKN070 15/13 Q1022